Time;durP1;ratioP1;P1;durP2;ratioP2;P2;SDS_P1;SDS_P2;PMS_P1;PMS_P2;Temp;Humidity;BMP_temperature;BMP_pressure;BME280_temperature;BME280_humidity;BME280_pressure;Samples;Min_cycle;Max_cycle;Signal;HPM_P1;HPM_P2
2022/12/20 00:01:38;;;;;;;4.78;2.65;;;20.70;59.00;;;;;;5010989;28;20244;-48
2022/12/20 00:04:11;;;;;;;3.97;2.78;;;20.80;59.00;;;;;;5010665;28;20672;-46
2022/12/20 00:06:42;;;;;;;3.97;2.30;;;20.70;59.00;;;;;;5011504;28;20212;-45
2022/12/20 00:09:13;;;;;;;4.95;2.63;;;20.80;59.00;;;;;;4993332;28;20643;-47
2022/12/20 00:11:46;;;;;;;3.35;2.08;;;20.80;59.10;;;;;;4991579;28;20337;-45
2022/12/20 00:14:16;;;;;;;4.68;2.30;;;20.80;59.10;;;;;;5010991;28;20211;-47
2022/12/20 00:16:47;;;;;;;4.75;2.50;;;20.80;59.20;;;;;;5000323;28;20205;-48
2022/12/20 00:19:18;;;;;;;3.58;2.35;;;20.80;59.20;;;;;;5011203;28;20220;-50
2022/12/20 00:21:48;;;;;;;4.03;2.28;;;20.80;59.20;;;;;;5009969;28;20221;-48
2022/12/20 00:24:19;;;;;;;3.95;2.50;;;20.80;59.20;;;;;;5010769;28;20220;-45
2022/12/20 00:26:52;;;;;;;3.50;2.38;;;20.80;59.20;;;;;;5009644;28;20200;-43
2022/12/20 00:29:22;;;;;;;5.43;2.50;;;20.80;59.20;;;;;;5010070;28;20940;-46
2022/12/20 00:31:53;;;;;;;4.15;2.50;;;20.80;59.10;;;;;;5010165;28;20208;-41
2022/12/20 00:34:24;;;;;;;5.15;2.40;;;20.80;59.10;;;;;;5010425;28;20221;-41
2022/12/20 00:36:55;;;;;;;3.67;2.20;;;20.80;59.10;;;;;;5010421;28;20201;-41
2022/12/20 00:39:25;;;;;;;4.75;2.28;;;20.80;59.00;;;;;;5010912;28;20215;-44
2022/12/20 00:41:58;;;;;;;4.05;2.47;;;20.80;59.10;;;;;;5010369;28;20688;-41
2022/12/20 00:44:29;;;;;;;4.47;2.10;;;20.80;59.00;;;;;;5007152;28;20193;-47
2022/12/20 00:47:00;;;;;;;4.50;2.50;;;20.80;59.10;;;;;;5010780;28;20328;-48
2022/12/20 00:49:30;;;;;;;3.97;2.35;;;20.80;59.10;;;;;;4990766;28;21330;-44
2022/12/20 00:52:01;;;;;;;3.40;2.13;;;20.80;59.10;;;;;;4994601;28;20212;-48
2022/12/20 00:54:32;;;;;;;4.32;2.20;;;20.90;59.20;;;;;;5010245;28;20665;-38
2022/12/20 00:57:04;;;;;;;3.53;2.20;;;20.80;59.20;;;;;;5010251;28;20211;-48
2022/12/20 00:59:36;;;;;;;4.00;2.35;;;20.90;59.20;;;;;;4994816;28;20217;-46
2022/12/20 01:02:07;;;;;;;5.15;2.38;;;20.90;59.30;;;;;;5030321;28;20220;-51
2022/12/20 01:04:38;;;;;;;3.80;2.22;;;20.90;59.20;;;;;;4994132;28;20209;-38
2022/12/20 01:07:13;;;;;;;3.55;2.05;;;20.90;59.20;;;;;;4994743;28;20209;-48
2022/12/20 01:09:43;;;;;;;4.78;2.15;;;20.90;59.20;;;;;;4997488;28;20196;-45
2022/12/20 01:12:16;;;;;;;6.05;2.05;;;20.90;59.20;;;;;;4995009;28;20208;-42
2022/12/20 01:14:47;;;;;;;4.32;2.25;;;20.90;59.20;;;;;;4993998;28;20194;-39
2022/12/20 01:17:17;;;;;;;3.67;2.00;;;20.90;59.20;;;;;;5004670;28;20579;-38
2022/12/20 01:19:48;;;;;;;2.90;1.95;;;20.90;59.10;;;;;;4994019;28;20208;-39
2022/12/20 01:22:19;;;;;;;3.00;2.00;;;20.90;59.20;;;;;;4999501;28;20726;-48
2022/12/20 01:24:49;;;;;;;3.95;2.10;;;20.90;59.20;;;;;;5003170;28;20204;-45
2022/12/20 01:27:22;;;;;;;4.15;2.10;;;20.90;59.30;;;;;;5013455;28;20227;-42
2022/12/20 01:29:53;;;;;;;3.88;2.17;;;20.90;59.20;;;;;;5013314;28;20574;-45
2022/12/20 01:32:24;;;;;;;4.60;2.75;;;21.00;59.30;;;;;;5013128;28;20209;-38
2022/12/20 01:34:56;;;;;;;3.75;2.33;;;21.00;59.30;;;;;;4993752;28;20571;-47
2022/12/20 01:37:27;;;;;;;3.42;1.85;;;21.00;59.30;;;;;;4993529;28;20201;-40
2022/12/20 01:39:58;;;;;;;6.95;2.45;;;21.00;59.30;;;;;;5012968;28;20578;-43
2022/12/20 01:42:30;;;;;;;5.28;2.35;;;21.00;59.30;;;;;;5012864;28;20228;-48
2022/12/20 01:45:02;;;;;;;4.70;2.40;;;21.00;59.30;;;;;;5013503;28;20764;-43
2022/12/20 01:47:35;;;;;;;5.10;2.40;;;21.00;59.20;;;;;;5013623;28;20208;-48
2022/12/20 01:50:11;;;;;;;4.38;2.05;;;21.00;59.30;;;;;;5013164;28;20200;-43
2022/12/20 01:52:44;;;;;;;4.13;2.25;;;21.00;59.30;;;;;;5012944;28;20208;-43
2022/12/20 01:55:18;;;;;;;3.60;2.25;;;21.00;59.30;;;;;;5012633;28;20208;-44
2022/12/20 01:57:54;;;;;;;4.35;2.30;;;21.00;59.30;;;;;;5013277;28;20290;-43
2022/12/20 02:00:25;;;;;;;4.25;2.22;;;21.00;59.30;;;;;;5013568;28;20196;-50
2022/12/20 02:03:00;;;;;;;4.95;2.40;;;21.00;59.40;;;;;;5012342;28;20248;-44
2022/12/20 02:05:35;;;;;;;4.85;2.05;;;21.10;59.30;;;;;;5012883;28;20204;-43
2022/12/20 02:08:07;;;;;;;4.78;2.55;;;21.00;59.30;;;;;;5009082;28;20208;-43
2022/12/20 02:10:52;;;;;;;3.88;2.20;;;21.00;59.30;;;;;;5012860;28;20208;-48
2022/12/20 02:13:33;;;;;;;3.90;1.95;;;21.10;59.30;;;;;;5012676;28;20197;-47
2022/12/20 02:16:05;;;;;;;5.03;2.17;;;21.00;59.20;;;;;;5001996;28;20212;-45
2022/12/20 02:18:42;;;;;;;4.10;2.05;;;21.10;59.20;;;;;;5000246;28;20227;-44
2022/12/20 02:21:32;;;;;;;3.30;1.83;;;21.10;59.20;;;;;;5012882;28;20204;-46
2022/12/20 02:24:37;;;;;;;3.95;2.10;;;21.10;59.20;;;;;;5004047;28;20232;-47
2022/12/20 02:27:32;;;;;;;4.60;2.28;;;21.10;59.20;;;;;;5013105;28;20283;-43
2022/12/20 02:30:19;;;;;;;3.33;2.20;;;21.10;59.20;;;;;;5012854;28;20220;-49
2022/12/20 02:32:55;;;;;;;5.15;2.30;;;21.10;59.20;;;;;;5012244;28;20898;-48
2022/12/20 02:35:30;;;;;;;4.18;2.30;;;21.10;59.20;;;;;;5012182;28;20926;-43
2022/12/20 02:38:01;;;;;;;3.50;1.70;;;21.10;59.80;;;;;;5012351;28;20248;-45
2022/12/20 02:40:36;;;;;;;3.28;2.15;;;21.10;59.20;;;;;;5012495;28;20215;-46
2022/12/20 02:45:14;;;;;;;3.95;2.00;;;21.10;59.20;;;;;;5015056;28;20224;-46
2022/12/20 02:46:04;;;;;;;4.15;2.17;;;21.10;59.20;;;;;;5012123;28;20268;-43
2022/12/20 02:48:36;;;;;;;3.42;2.00;;;21.10;59.10;;;;;;5012571;28;20702;-44
2022/12/20 02:51:10;;;;;;;3.60;2.17;;;21.10;59.20;;;;;;5012327;28;20205;-45
2022/12/20 02:53:42;;;;;;;3.45;1.90;;;21.10;59.20;;;;;;5011282;28;20196;-47
2022/12/20 02:56:18;;;;;;;5.03;2.03;;;21.10;59.20;;;;;;5014492;28;20572;-43
2022/12/20 02:58:53;;;;;;;5.18;2.88;;;21.10;59.10;;;;;;5012303;28;20208;-47
2022/12/20 03:01:30;;;;;;;4.70;2.50;;;21.10;59.10;;;;;;5012052;28;20196;-48
2022/12/20 03:04:02;;;;;;;5.43;2.42;;;21.10;59.10;;;;;;5010904;28;20224;-45
2022/12/20 03:06:33;;;;;;;4.75;2.50;;;21.10;59.10;;;;;;5011775;28;20661;-43
2022/12/20 03:09:04;;;;;;;7.43;2.72;;;21.20;59.20;;;;;;5010511;28;20220;-47
2022/12/20 03:11:35;;;;;;;4.40;2.40;;;21.10;59.30;;;;;;5012097;28;20583;-42
2022/12/20 03:14:05;;;;;;;4.90;2.38;;;21.20;59.10;;;;;;5011492;28;20189;-42
2022/12/20 03:16:38;;;;;;;4.40;2.10;;;21.20;59.10;;;;;;5012409;28;20200;-46
2022/12/20 03:19:08;;;;;;;4.45;2.20;;;21.20;59.60;;;;;;5006969;28;20692;-49
2022/12/20 03:21:39;;;;;;;5.13;2.72;;;21.20;59.00;;;;;;5010860;28;20203;-44
2022/12/20 03:24:12;;;;;;;5.15;2.95;;;21.10;59.00;;;;;;5011365;28;20232;-45
2022/12/20 03:26:43;;;;;;;3.60;2.33;;;21.10;59.00;;;;;;5025297;28;20228;-43
2022/12/20 03:29:14;;;;;;;3.40;2.10;;;21.20;59.00;;;;;;5022298;28;20213;-38
2022/12/20 03:31:46;;;;;;;4.32;2.05;;;21.20;59.00;;;;;;5011086;28;20202;-43
2022/12/20 03:34:17;;;;;;;4.03;2.15;;;21.10;58.90;;;;;;5010049;28;20200;-42
2022/12/20 03:36:48;;;;;;;3.60;2.03;;;21.10;58.90;;;;;;5010914;28;20204;-41
2022/12/20 03:39:19;;;;;;;3.05;1.98;;;21.20;58.90;;;;;;5011928;28;20220;-45
2022/12/20 03:41:50;;;;;;;4.05;2.17;;;21.10;58.80;;;;;;5011379;28;20826;-39
2022/12/20 03:44:21;;;;;;;5.97;2.60;;;21.20;58.90;;;;;;5011950;28;20231;-38
2022/12/20 03:46:53;;;;;;;5.70;2.20;;;21.20;59.50;;;;;;5011269;28;20197;-45
2022/12/20 03:49:24;;;;;;;3.83;2.08;;;21.10;58.90;;;;;;5010586;28;20225;-39
2022/12/20 03:51:55;;;;;;;3.97;2.08;;;21.20;58.80;;;;;;5010378;28;20208;-40
2022/12/20 03:54:26;;;;;;;3.50;1.70;;;21.20;58.90;;;;;;5010659;28;20196;-45
2022/12/20 03:56:57;;;;;;;4.32;2.17;;;21.20;58.90;;;;;;5011078;28;20676;-42
2022/12/20 03:59:28;;;;;;;4.78;2.30;;;21.20;58.80;;;;;;5010406;28;20212;-42
2022/12/20 04:02:01;;;;;;;4.35;1.85;;;21.20;58.80;;;;;;5011194;28;20193;-42
2022/12/20 04:04:32;;;;;;;2.92;1.75;;;21.10;58.70;;;;;;5009960;28;20220;-43
2022/12/20 04:07:02;;;;;;;3.67;1.73;;;21.20;58.80;;;;;;5010426;28;20201;-45
2022/12/20 04:09:33;;;;;;;3.85;2.38;;;21.20;58.70;;;;;;5000807;28;20225;-44
2022/12/20 04:12:04;;;;;;;3.97;2.10;;;21.20;58.70;;;;;;5011072;28;20204;-44
2022/12/20 04:14:36;;;;;;;4.75;2.22;;;21.10;58.60;;;;;;5003862;28;20197;-48
2022/12/20 04:17:08;;;;;;;4.40;2.00;;;21.10;58.60;;;;;;5010258;28;20200;-47
2022/12/20 04:19:39;;;;;;;3.58;1.55;;;21.10;58.60;;;;;;5017533;28;20878;-43
2022/12/20 04:22:10;;;;;;;4.35;1.85;;;21.20;58.60;;;;;;5025292;28;20204;-46
2022/12/20 04:24:41;;;;;;;3.08;1.90;;;21.20;58.60;;;;;;5009994;28;20224;-45
2022/12/20 04:27:11;;;;;;;4.38;2.20;;;21.20;58.60;;;;;;5010610;28;20205;-50
2022/12/20 04:29:42;;;;;;;4.30;2.00;;;21.10;58.40;;;;;;5010769;28;20213;-44
2022/12/20 04:32:15;;;;;;;3.58;1.95;;;21.20;58.40;;;;;;5010273;28;20208;-44
2022/12/20 04:34:45;;;;;;;4.50;1.95;;;21.10;58.40;;;;;;5009776;28;20200;-43
2022/12/20 04:37:16;;;;;;;3.78;2.05;;;21.10;58.40;;;;;;5010939;28;20259;-45
2022/12/20 04:39:47;;;;;;;4.85;2.05;;;21.20;58.40;;;;;;5010786;28;20586;-42
2022/12/20 04:42:17;;;;;;;4.93;2.35;;;21.10;58.30;;;;;;5010122;28;20197;-45
2022/12/20 04:44:48;;;;;;;3.30;2.13;;;21.10;58.20;;;;;;5010015;28;20719;-39
2022/12/20 04:47:21;;;;;;;5.35;2.05;;;21.10;58.30;;;;;;5013392;28;20200;-45
2022/12/20 04:49:51;;;;;;;4.88;2.15;;;21.10;58.20;;;;;;5009858;28;20212;-42
2022/12/20 04:55:09;;;;;;;4.22;2.10;;;21.10;58.20;;;;;;5011587;28;20290;-39
2022/12/20 04:57:40;;;;;;;5.03;2.08;;;21.20;58.20;;;;;;5009964;28;20207;-41
2022/12/20 05:00:11;;;;;;;4.75;2.10;;;21.10;58.10;;;;;;5008999;28;20197;-50
2022/12/20 05:02:44;;;;;;;5.00;1.85;;;21.10;58.10;;;;;;5010021;28;20653;-44
2022/12/20 05:05:15;;;;;;;3.90;1.90;;;21.20;58.10;;;;;;5010222;28;20201;-40
2022/12/20 05:07:45;;;;;;;3.33;1.73;;;21.10;58.00;;;;;;5010794;28;20247;-46
2022/12/20 05:10:16;;;;;;;4.78;2.03;;;21.10;58.00;;;;;;5007392;28;20193;-51
2022/12/20 05:12:47;;;;;;;3.78;1.80;;;21.20;57.90;;;;;;5010509;28;20822;-49
2022/12/20 05:15:17;;;;;;;3.13;2.00;;;21.10;57.90;;;;;;5010232;28;20204;-45
2022/12/20 05:17:50;;;;;;;2.72;1.70;;;21.20;57.90;;;;;;5010146;28;20661;-42
2022/12/20 05:20:21;;;;;;;4.78;2.03;;;21.10;57.90;;;;;;5009661;28;20193;-39
2022/12/20 05:28:26;;;;;;;2.53;1.63;;;21.10;57.70;;;;;;5010725;28;20228;-46
2022/12/20 05:30:57;;;;;;;3.60;1.75;;;21.10;57.70;;;;;;5009829;28;20193;-44
2022/12/20 05:33:30;;;;;;;2.92;1.73;;;21.20;57.70;;;;;;5010160;28;20197;-48
2022/12/20 05:36:01;;;;;;;1.90;1.60;;;21.10;57.70;;;;;;5010476;28;20291;-44
2022/12/20 05:38:32;;;;;;;3.08;1.60;;;21.10;57.70;;;;;;5009457;28;20700;-42
2022/12/20 05:41:03;;;;;;;2.28;1.60;;;21.10;57.60;;;;;;5008799;28;20197;-47
2022/12/20 05:43:34;;;;;;;3.10;1.80;;;21.10;57.50;;;;;;5010358;28;20298;-44
2022/12/20 05:46:05;;;;;;;3.33;1.70;;;21.10;57.50;;;;;;5013936;28;20700;-45
2022/12/20 05:48:37;;;;;;;3.38;1.55;;;21.10;57.40;;;;;;5014142;28;20213;-42
2022/12/20 05:51:08;;;;;;;3.90;1.42;;;21.20;57.50;;;;;;5013981;28;20205;-46
2022/12/20 05:53:39;;;;;;;3.30;1.80;;;21.10;57.40;;;;;;5013879;28;20841;-42
2022/12/20 05:56:10;;;;;;;4.63;2.30;;;21.20;58.10;;;;;;5013858;28;20200;-42
2022/12/20 05:58:41;;;;;;;8.65;4.00;;;21.10;57.40;;;;;;5013962;28;20224;-41
2022/12/20 06:01:12;;;;;;;11.52;5.05;;;21.10;57.40;;;;;;5013780;28;20546;-39
2022/12/20 06:03:44;;;;;;;13.35;5.90;;;21.10;57.40;;;;;;5013486;28;20224;-42
2022/12/20 06:06:15;;;;;;;10.13;4.72;;;21.20;57.40;;;;;;5013442;28;20209;-40
2022/12/20 06:08:46;;;;;;;15.90;5.43;;;21.10;57.30;;;;;;5013949;28;20279;-44
2022/12/20 06:11:16;;;;;;;13.15;4.40;;;21.10;57.40;;;;;;5013853;28;20196;-42
2022/12/20 06:13:47;;;;;;;10.95;4.72;;;21.10;57.40;;;;;;5008938;28;20657;-41
2022/12/20 06:16:19;;;;;;;11.15;4.50;;;21.10;57.40;;;;;;4993880;28;20200;-40
2022/12/20 06:18:52;;;;;;;13.50;4.40;;;21.20;57.20;;;;;;4993478;28;20724;-46
2022/12/20 06:21:22;;;;;;;9.70;4.47;;;21.20;57.20;;;;;;4993345;28;20645;-43
2022/12/20 06:23:53;;;;;;;10.40;4.72;;;21.10;57.10;;;;;;5012568;28;20224;-41
2022/12/20 06:26:24;;;;;;;8.93;4.10;;;21.20;57.10;;;;;;5013506;28;20197;-42
2022/12/20 06:29:00;;;;;;;9.05;3.85;;;21.10;57.60;;;;;;5013093;28;20217;-42
2022/12/20 06:31:31;;;;;;;10.50;4.03;;;21.10;57.10;;;;;;5013294;28;20204;-43
2022/12/20 06:34:04;;;;;;;8.82;4.10;;;21.10;57.00;;;;;;5012718;28;20536;-43
2022/12/20 06:36:35;;;;;;;11.07;4.30;;;21.10;57.00;;;;;;5012186;28;20563;-41
2022/12/20 06:39:06;;;;;;;9.48;3.70;;;21.10;57.00;;;;;;5012814;28;20216;-43
2022/12/20 06:41:36;;;;;;;8.43;3.30;;;21.10;57.00;;;;;;5013183;28;20221;-43
2022/12/20 06:44:07;;;;;;;7.78;3.20;;;21.10;57.00;;;;;;5013941;28;20251;-43
2022/12/20 06:46:38;;;;;;;7.57;3.15;;;21.10;57.00;;;;;;5016308;28;20196;-45
2022/12/20 06:49:11;;;;;;;6.28;3.40;;;21.10;57.00;;;;;;5012674;28;20221;-47
2022/12/20 06:51:42;;;;;;;6.70;3.50;;;21.10;57.00;;;;;;5012975;28;20201;-43
2022/12/20 06:54:13;;;;;;;7.18;3.05;;;21.10;56.90;;;;;;5012528;28;20201;-41
2022/12/20 06:56:43;;;;;;;7.60;3.40;;;21.10;56.90;;;;;;5011514;28;20201;-43
2022/12/20 06:59:14;;;;;;;6.03;3.10;;;21.10;56.90;;;;;;5012733;28;20221;-44
2022/12/20 07:01:45;;;;;;;5.25;2.83;;;21.10;56.80;;;;;;5012744;28;20208;-43
2022/12/20 07:04:18;;;;;;;5.40;2.70;;;21.10;56.80;;;;;;5012057;28;20228;-42
2022/12/20 07:06:49;;;;;;;8.05;2.90;;;21.10;56.90;;;;;;5013757;28;20204;-42
2022/12/20 07:09:20;;;;;;;6.35;2.70;;;21.10;56.80;;;;;;5032283;28;20227;-41
2022/12/20 07:11:51;;;;;;;5.82;2.78;;;21.10;56.80;;;;;;5031726;28;20192;-42
2022/12/20 07:14:21;;;;;;;6.70;2.92;;;21.10;56.70;;;;;;5032272;28;20657;-43
2022/12/20 07:16:52;;;;;;;5.53;2.78;;;21.10;56.70;;;;;;5015215;28;20205;-41
2022/12/20 07:19:25;;;;;;;5.15;2.55;;;21.10;56.70;;;;;;4992744;28;20253;-43
2022/12/20 07:21:55;;;;;;;4.22;2.38;;;21.10;56.70;;;;;;4995830;28;20205;-44
2022/12/20 07:24:26;;;;;;;6.13;2.80;;;21.10;56.80;;;;;;5012083;28;20727;-42
2022/12/20 07:26:57;;;;;;;4.47;2.80;;;21.10;56.70;;;;;;5011955;28;20208;-45
2022/12/20 07:29:28;;;;;;;4.55;2.47;;;21.10;56.70;;;;;;5012284;28;20379;-45
2022/12/20 07:31:58;;;;;;;5.32;2.55;;;21.00;56.60;;;;;;5012265;28;20224;-42
2022/12/20 07:34:31;;;;;;;5.85;2.85;;;21.00;56.60;;;;;;5011747;28;20200;-42
2022/12/20 07:37:02;;;;;;;3.70;2.20;;;21.00;56.60;;;;;;5011693;28;20196;-40
2022/12/20 07:39:32;;;;;;;4.65;2.20;;;21.00;57.10;;;;;;5011482;28;20221;-45
2022/12/20 07:42:03;;;;;;;4.97;2.30;;;21.00;56.60;;;;;;5011354;28;20204;-41
2022/12/20 07:44:34;;;;;;;4.95;2.28;;;21.00;56.60;;;;;;5011965;28;20323;-44
2022/12/20 07:47:05;;;;;;;6.00;2.50;;;21.00;56.60;;;;;;5011937;28;20555;-42
2022/12/20 07:49:37;;;;;;;5.25;2.58;;;21.00;56.50;;;;;;5011743;28;20217;-43
2022/12/20 07:52:11;;;;;;;4.43;2.30;;;21.00;56.50;;;;;;5011983;28;20216;-43
2022/12/20 07:54:47;;;;;;;4.07;2.35;;;21.00;56.40;;;;;;5011569;28;20545;-42
2022/12/20 07:57:20;;;;;;;4.50;2.38;;;21.00;56.50;;;;;;5011750;28;20655;-44
2022/12/20 07:59:55;;;;;;;4.32;2.05;;;21.00;56.40;;;;;;5011887;28;20220;-42
2022/12/20 08:02:32;;;;;;;3.78;2.20;;;21.00;56.50;;;;;;5011993;28;20540;-41
2022/12/20 08:05:06;;;;;;;6.10;2.30;;;21.00;56.50;;;;;;5011903;28;20232;-43
2022/12/20 08:07:42;;;;;;;3.95;2.00;;;21.00;56.40;;;;;;5011464;28;20208;-42
2022/12/20 08:10:15;;;;;;;4.57;2.33;;;21.00;56.40;;;;;;5010921;28;20212;-49
2022/12/20 08:12:48;;;;;;;4.45;2.17;;;20.90;56.40;;;;;;5009911;28;20212;-42
2022/12/20 08:15:21;;;;;;;4.65;2.33;;;20.90;56.40;;;;;;5011710;28;20200;-42
2022/12/20 08:17:52;;;;;;;8.70;4.22;;;20.90;56.40;;;;;;5011507;28;20283;-43
2022/12/20 08:20:25;;;;;;;9.95;4.90;;;20.90;57.00;;;;;;5006269;28;20204;-42
2022/12/20 08:22:55;;;;;;;9.98;3.97;;;21.00;57.70;;;;;;5008772;28;20201;-44
2022/12/20 08:25:26;;;;;;;8.07;3.90;;;21.00;57.60;;;;;;5010730;28;20236;-46
2022/12/20 08:28:00;;;;;;;7.55;4.07;;;21.00;57.50;;;;;;4997347;28;20669;-44
2022/12/20 08:30:31;;;;;;;9.07;3.95;;;21.00;57.40;;;;;;4993982;28;20193;-46
2022/12/20 08:33:01;;;;;;;7.78;4.35;;;21.00;57.30;;;;;;5010813;28;20196;-41
2022/12/20 08:35:34;;;;;;;6.25;3.53;;;21.00;57.30;;;;;;5010631;28;20201;-43
2022/12/20 08:38:05;;;;;;;6.57;3.90;;;21.00;57.20;;;;;;5010255;28;20233;-45
2022/12/20 08:40:36;;;;;;;6.65;4.30;;;21.00;57.10;;;;;;5010049;28;20205;-46
2022/12/20 08:43:06;;;;;;;7.90;4.18;;;21.00;57.10;;;;;;5010022;28;20555;-39
2022/12/20 08:45:37;;;;;;;6.38;3.90;;;21.00;57.10;;;;;;5010444;28;20224;-44
2022/12/20 08:48:08;;;;;;;10.13;4.68;;;20.90;57.00;;;;;;5010162;28;20227;-42
2022/12/20 08:50:41;;;;;;;9.68;4.72;;;21.00;57.00;;;;;;5008699;28;20197;-47
2022/12/20 08:53:11;;;;;;;7.53;4.47;;;20.90;56.90;;;;;;5013868;28;20193;-45
2022/12/20 08:55:42;;;;;;;9.40;4.65;;;21.00;56.90;;;;;;5010691;28;20189;-43
2022/12/20 08:58:13;;;;;;;7.60;4.43;;;20.90;56.80;;;;;;5009858;28;20588;-43
2022/12/20 09:00:43;;;;;;;8.13;4.63;;;21.00;56.80;;;;;;5010061;28;20192;-45
2022/12/20 09:03:14;;;;;;;9.05;4.57;;;20.90;56.80;;;;;;5010306;28;20196;-45
2022/12/20 09:05:50;;;;;;;7.82;4.30;;;20.90;56.70;;;;;;5009668;28;20271;-44
2022/12/20 10:08:04;;;;;;;7.15;3.70;;;20.80;57.00;;;;;;6160884;22;20186;-49
2022/12/20 10:10:55;;;;;;;5.45;3.50;;;20.80;56.90;;;;;;5022657;28;20196;-57
2022/12/20 10:13:39;;;;;;;5.35;3.17;;;20.80;56.90;;;;;;5009613;28;20192;-51
2022/12/20 10:16:27;;;;;;;5.53;3.45;;;20.80;56.80;;;;;;5023010;28;20192;-57
2022/12/20 10:19:14;;;;;;;4.03;3.20;;;20.70;56.80;;;;;;5012611;28;20214;-56
2022/12/20 10:21:54;;;;;;;5.10;3.33;;;20.70;56.80;;;;;;5012148;28;20372;-56
2022/12/20 10:24:31;;;;;;;6.13;3.50;;;20.70;56.80;;;;;;5024538;28;20502;-56
2022/12/20 10:27:13;;;;;;;5.88;3.55;;;20.70;56.80;;;;;;5023928;28;20192;-58
2022/12/20 10:29:45;;;;;;;6.38;3.25;;;20.70;56.80;;;;;;5024067;28;20216;-57
2022/12/20 10:32:18;;;;;;;5.68;3.60;;;20.70;57.40;;;;;;5024162;28;20193;-54
2022/12/20 10:34:57;;;;;;;4.40;3.10;;;20.70;56.90;;;;;;5023221;28;20207;-54
2022/12/20 10:37:28;;;;;;;4.75;3.30;;;20.60;56.80;;;;;;5024569;28;20232;-53
2022/12/20 10:40:01;;;;;;;4.30;3.10;;;20.60;56.80;;;;;;5023998;28;20444;-47
2022/12/20 10:42:40;;;;;;;4.03;3.15;;;20.60;56.70;;;;;;5024098;28;20181;-50
2022/12/20 10:45:29;;;;;;;4.68;3.05;;;20.60;56.70;;;;;;5023049;28;20536;-52
2022/12/20 10:48:03;;;;;;;4.32;3.03;;;20.60;56.70;;;;;;5021404;28;20206;-50
2022/12/20 10:50:35;;;;;;;4.70;3.35;;;20.60;56.60;;;;;;5020835;28;20193;-47
2022/12/20 10:53:26;;;;;;;4.85;3.13;;;20.60;56.60;;;;;;5023969;28;20231;-47
2022/12/20 10:56:20;;;;;;;5.78;3.40;;;20.60;56.60;;;;;;5023843;28;20428;-49
2022/12/20 10:59:00;;;;;;;5.38;2.95;;;20.60;56.60;;;;;;5023743;28;20204;-49
2022/12/20 11:01:34;;;;;;;4.55;3.08;;;20.60;56.60;;;;;;5023942;28;20212;-48
2022/12/20 11:04:07;;;;;;;5.32;3.35;;;20.60;56.60;;;;;;5023626;28;20225;-52
2022/12/20 11:06:47;;;;;;;4.78;3.28;;;20.60;56.70;;;;;;5023961;28;20185;-52
2022/12/20 11:09:33;;;;;;;4.65;2.92;;;20.50;56.70;;;;;;5023524;28;20280;-48
2022/12/20 11:12:08;;;;;;;5.32;2.78;;;20.60;56.70;;;;;;5023663;28;20474;-53
2022/12/20 11:14:40;;;;;;;4.40;2.83;;;20.50;56.60;;;;;;5023522;28;20192;-49
2022/12/20 11:17:27;;;;;;;5.15;3.10;;;20.60;56.70;;;;;;5023384;28;20201;-52
2022/12/20 11:20:19;;;;;;;3.85;2.90;;;20.60;56.60;;;;;;5022694;28;20213;-48
2022/12/20 11:23:00;;;;;;;4.40;3.25;;;20.50;56.60;;;;;;5008146;28;20232;-54
2022/12/20 11:25:46;;;;;;;4.80;2.92;;;20.50;56.50;;;;;;5021953;28;20208;-52
2022/12/20 11:28:32;;;;;;;5.82;3.15;;;20.50;56.50;;;;;;5019876;28;20204;-50
2022/12/20 11:31:12;;;;;;;4.70;2.80;;;20.50;56.50;;;;;;5021044;28;20219;-52
2022/12/20 11:34:05;;;;;;;4.80;2.78;;;20.50;56.50;;;;;;5020766;28;20449;-49
2022/12/20 11:36:49;;;;;;;5.75;3.25;;;20.50;57.10;;;;;;5021818;28;20486;-53
2022/12/20 11:39:31;;;;;;;3.72;2.67;;;20.50;56.50;;;;;;5020077;28;20251;-48
2022/12/20 11:42:11;;;;;;;3.92;3.05;;;20.50;56.60;;;;;;5019915;28;20277;-51
2022/12/20 11:44:55;;;;;;;4.40;2.78;;;20.40;56.50;;;;;;5020166;28;20494;-53
2022/12/20 11:47:54;;;;;;;3.90;2.80;;;20.40;56.60;;;;;;5021554;28;20185;-52
2022/12/20 11:50:50;;;;;;;4.63;2.97;;;20.40;56.60;;;;;;5022864;28;20260;-51
2022/12/20 11:53:27;;;;;;;5.20;3.00;;;20.40;56.50;;;;;;5021157;28;20201;-48
2022/12/20 11:56:03;;;;;;;4.53;2.45;;;20.40;56.40;;;;;;5023329;28;20239;-52
2022/12/20 11:58:44;;;;;;;5.72;2.75;;;20.40;56.40;;;;;;5022954;28;20211;-49
2022/12/20 12:01:20;;;;;;;3.50;2.33;;;20.40;56.40;;;;;;5022302;28;20196;-55
2022/12/20 12:04:03;;;;;;;4.05;2.70;;;20.40;56.40;;;;;;5022687;28;20482;-50
2022/12/20 12:06:37;;;;;;;4.07;2.67;;;20.40;56.40;;;;;;5022641;28;20219;-54
2022/12/20 12:09:25;;;;;;;3.55;2.63;;;20.40;56.50;;;;;;5023269;28;20521;-48
2022/12/20 12:12:02;;;;;;;3.28;2.60;;;20.40;56.50;;;;;;5022763;28;20196;-52
2022/12/20 12:14:45;;;;;;;3.65;2.58;;;20.40;56.50;;;;;;5022813;28;20239;-50
2022/12/20 12:17:26;;;;;;;3.90;2.53;;;20.40;56.50;;;;;;5019373;28;20185;-50
2022/12/20 12:20:12;;;;;;;4.57;2.42;;;20.30;56.50;;;;;;5024484;28;20200;-51
2022/12/20 12:22:44;;;;;;;3.03;2.40;;;20.30;56.40;;;;;;5028352;28;20207;-51
2022/12/20 12:25:19;;;;;;;4.18;2.60;;;20.30;56.40;;;;;;5030165;28;20299;-50
2022/12/20 12:27:50;;;;;;;3.40;2.22;;;20.30;56.50;;;;;;5022094;28;20219;-50
2022/12/20 12:30:21;;;;;;;4.85;2.83;;;20.30;56.40;;;;;;5022044;28;20215;-47
2022/12/20 12:32:59;;;;;;;3.70;2.10;;;20.30;56.40;;;;;;5022481;28;20263;-51
2022/12/20 12:35:58;;;;;;;3.83;2.58;;;20.30;56.40;;;;;;5022530;28;20197;-53
2022/12/20 12:38:49;;;;;;;4.30;2.83;;;20.30;56.40;;;;;;5020323;28;20223;-51
2022/12/20 12:41:57;;;;;;;4.05;2.58;;;20.30;56.40;;;;;;5021734;28;20544;-51
2022/12/20 12:44:40;;;;;;;2.80;2.42;;;20.30;56.40;;;;;;5022041;28;20193;-48
2022/12/20 12:47:18;;;;;;;3.92;2.42;;;20.30;56.40;;;;;;5021680;28;20260;-48
2022/12/20 12:49:55;;;;;;;3.95;2.38;;;20.30;56.50;;;;;;5022026;28;20577;-48
2022/12/20 12:52:44;;;;;;;5.22;2.45;;;20.30;56.50;;;;;;5022357;28;20205;-48
2022/12/20 12:55:44;;;;;;;3.53;2.35;;;20.30;56.50;;;;;;5024792;28;20581;-47
2022/12/20 12:58:44;;;;;;;2.95;2.25;;;20.30;56.50;;;;;;5026500;28;20212;-50
2022/12/20 13:01:35;;;;;;;3.80;2.15;;;20.20;56.50;;;;;;5026135;28;20498;-50
2022/12/20 13:04:24;;;;;;;3.20;2.50;;;20.20;56.40;;;;;;5026151;28;20199;-47
2022/12/20 13:07:23;;;;;;;3.33;2.22;;;20.20;56.40;;;;;;5026409;28;20228;-47
2022/12/20 13:09:56;;;;;;;3.08;2.20;;;20.20;56.40;;;;;;5024416;28;20239;-49
2022/12/20 13:13:00;;;;;;;3.45;2.30;;;20.20;56.40;;;;;;5026066;28;20195;-48
2022/12/20 13:15:49;;;;;;;3.67;2.10;;;20.20;56.40;;;;;;5026162;28;20224;-47
2022/12/20 13:18:30;;;;;;;2.22;2.03;;;20.20;56.40;;;;;;5025849;28;20197;-47
2022/12/20 13:21:32;;;;;;;2.47;2.00;;;20.20;56.40;;;;;;5025735;28;20441;-47
2022/12/20 13:24:40;;;;;;;2.88;2.05;;;20.20;56.40;;;;;;5024449;28;20243;-48
2022/12/20 13:27:32;;;;;;;2.60;2.10;;;20.20;56.40;;;;;;5025599;28;20250;-47
2022/12/20 13:30:32;;;;;;;3.08;1.90;;;20.20;56.40;;;;;;5025402;28;20205;-47
2022/12/20 13:33:22;;;;;;;2.17;1.98;;;20.10;56.40;;;;;;5018236;28;20193;-48
2022/12/20 13:36:02;;;;;;;2.88;1.90;;;20.10;56.40;;;;;;5025155;28;20196;-48
2022/12/20 13:38:57;;;;;;;3.17;2.20;;;20.10;56.40;;;;;;5025366;28;20217;-48
2022/12/20 13:41:43;;;;;;;2.03;1.80;;;20.10;56.40;;;;;;5025259;28;20193;-47
2022/12/20 13:44:46;;;;;;;2.85;2.17;;;20.10;56.30;;;;;;5025175;28;20357;-47
2022/12/20 13:47:43;;;;;;;3.28;2.10;;;20.10;56.40;;;;;;5025312;28;20230;-47
2022/12/20 13:50:34;;;;;;;2.47;2.00;;;20.10;56.30;;;;;;5025213;28;20212;-47
2022/12/20 13:53:06;;;;;;;2.45;2.10;;;20.10;56.40;;;;;;5025302;28;20247;-47
2022/12/20 13:55:41;;;;;;;2.53;1.77;;;20.10;56.40;;;;;;5025290;28;20423;-46
2022/12/20 13:58:20;;;;;;;3.08;1.83;;;20.10;56.30;;;;;;5025359;28;20536;-46
2022/12/20 14:00:54;;;;;;;2.78;1.85;;;20.10;56.40;;;;;;5024921;28;20243;-47
2022/12/20 14:03:28;;;;;;;3.35;2.28;;;20.10;56.40;;;;;;5024764;28;20195;-47
2022/12/20 14:06:03;;;;;;;2.13;1.77;;;20.10;56.40;;;;;;5024336;28;20216;-47
2022/12/20 16:08:18;;;;;;;1.30;1.20;;;19.60;56.40;;;;;;5061071;28;20243;-51
2022/12/20 16:10:50;;;;;;;2.05;1.30;;;19.60;56.30;;;;;;5029105;28;20636;-55
2022/12/20 16:13:25;;;;;;;1.35;1.25;;;19.70;56.40;;;;;;5031334;28;20207;-49
2022/12/20 16:15:55;;;;;;;2.47;1.35;;;19.60;56.40;;;;;;5031188;28;20258;-47
2022/12/20 16:18:26;;;;;;;1.50;1.02;;;19.60;56.40;;;;;;5033148;28;20196;-50
2022/12/20 16:20:58;;;;;;;1.35;1.00;;;19.60;56.40;;;;;;5051202;28;20722;-49
2022/12/20 16:23:30;;;;;;;2.15;1.25;;;19.60;56.40;;;;;;5050855;28;20206;-51
2022/12/20 16:26:01;;;;;;;2.35;1.20;;;19.60;56.40;;;;;;5050355;28;20600;-47
2022/12/20 16:28:32;;;;;;;1.77;1.10;;;19.60;56.30;;;;;;5050283;28;20219;-49
2022/12/20 16:31:11;;;;;;;2.15;1.20;;;19.60;56.40;;;;;;5051226;28;20203;-53
2022/12/20 16:33:42;;;;;;;1.90;1.45;;;19.60;56.30;;;;;;5050922;28;20203;-48
2022/12/20 16:36:14;;;;;;;1.30;1.02;;;19.60;56.30;;;;;;5050342;28;20290;-51